createdAt,value
2023-04-15T00:00:10.538Z,41.68
2023-04-15T00:03:02.572Z,41.70
2023-04-15T00:05:31.253Z,41.74
2023-04-15T00:07:59.202Z,41.68
2023-04-15T00:10:27.918Z,41.75
2023-04-15T00:12:55.850Z,41.66
2023-04-15T00:15:23.862Z,41.69
2023-04-15T00:17:52.450Z,41.65
2023-04-15T00:20:21.110Z,41.71
2023-04-15T00:22:49.194Z,41.75
2023-04-15T00:25:17.363Z,41.75
2023-04-15T00:27:45.439Z,41.71
2023-04-15T00:30:16.179Z,41.75
2023-04-15T00:32:44.774Z,41.78
2023-04-15T00:35:12.929Z,41.83
2023-04-15T00:37:40.991Z,41.81
2023-04-15T00:40:13.034Z,41.65
2023-04-15T00:42:41.254Z,41.76
2023-04-15T00:45:10.024Z,41.73
2023-04-15T00:47:38.074Z,41.72
2023-04-15T00:50:07.285Z,41.80
2023-04-15T00:52:35.187Z,41.76
2023-04-15T00:55:04.834Z,41.73
2023-04-15T00:57:33.473Z,41.82
2023-04-15T01:00:01.954Z,41.81
2023-04-15T01:02:30.139Z,41.78
2023-04-15T01:04:58.233Z,41.77
2023-04-15T01:07:26.462Z,41.82
2023-04-15T01:09:55.048Z,41.77
2023-04-15T01:12:23.222Z,41.77
2023-04-15T01:14:51.500Z,41.80
2023-04-15T01:17:19.684Z,41.88
2023-04-15T01:19:47.752Z,41.83
2023-04-15T01:22:16.423Z,41.91
2023-04-15T01:24:52.362Z,41.85
2023-04-15T01:27:20.868Z,41.96
2023-04-15T01:29:49.144Z,41.91
2023-04-15T01:32:17.415Z,41.94
2023-04-15T01:34:45.763Z,41.75
2023-04-15T01:37:13.968Z,41.81
2023-04-15T01:39:42.052Z,41.83
2023-04-15T01:42:10.427Z,41.89
2023-04-15T01:44:38.391Z,41.83
2023-04-15T01:47:06.961Z,41.85
2023-04-15T01:49:35.144Z,41.79
2023-04-15T01:52:03.472Z,41.80
2023-04-15T01:54:31.700Z,41.86
2023-04-15T01:56:59.789Z,41.81
2023-04-15T01:59:28.160Z,41.84
2023-04-15T02:01:56.472Z,41.76
2023-04-15T02:04:24.612Z,41.72
2023-04-15T02:06:52.557Z,41.79
2023-04-15T02:09:23.111Z,41.83
2023-04-15T02:11:52.315Z,41.79
2023-04-15T02:14:20.375Z,41.84
2023-04-15T02:16:48.447Z,41.74
2023-04-15T02:19:17.734Z,41.78
2023-04-15T02:21:45.841Z,41.80
2023-04-15T02:24:13.874Z,41.71
2023-04-15T02:26:42.577Z,41.77
2023-04-15T02:29:10.929Z,41.86
2023-04-15T02:31:40.819Z,41.81
2023-04-15T02:34:08.940Z,41.84
2023-04-15T02:36:36.928Z,41.78
2023-04-15T02:39:07.042Z,41.84
2023-04-15T02:41:35.620Z,41.93
2023-04-15T02:44:04.521Z,41.86
2023-04-15T02:46:32.726Z,41.91
2023-04-15T02:49:01.338Z,41.83
2023-04-15T02:51:31.323Z,41.92
2023-04-15T02:53:59.349Z,42.02
2023-04-15T02:56:27.738Z,41.96
2023-04-15T02:58:56.420Z,41.90
2023-04-15T03:01:24.766Z,42.03
2023-04-15T03:03:53.151Z,42.02
2023-04-15T03:06:21.343Z,41.98
2023-04-15T03:08:51.582Z,41.97
2023-04-15T03:11:20.260Z,42.10
2023-04-15T03:13:48.324Z,42.29
2023-04-15T03:16:28.282Z,42.32
2023-04-15T03:18:56.462Z,42.25
2023-04-15T03:21:24.942Z,42.39
2023-04-15T03:23:53.421Z,42.32
2023-04-15T03:26:28.836Z,42.37
2023-04-15T03:28:59.554Z,42.33
2023-04-15T03:31:27.929Z,42.37
2023-04-15T03:33:56.670Z,42.34
2023-04-15T03:36:25.142Z,42.33
2023-04-15T03:38:53.119Z,42.33
2023-04-15T03:41:21.781Z,42.32
2023-04-15T03:43:52.233Z,42.16
2023-04-15T03:46:20.520Z,42.34
2023-04-15T03:48:48.855Z,42.24
2023-04-15T03:51:17.129Z,42.14
2023-04-15T03:53:45.635Z,42.06
2023-04-15T03:56:13.784Z,42.08
2023-04-15T03:58:41.892Z,33.37
2023-04-15T04:01:09.766Z,42.00
2023-04-15T04:03:38.121Z,41.91
2023-04-15T04:06:06.932Z,41.92
2023-04-15T04:08:34.991Z,41.78
2023-04-15T04:11:03.172Z,41.76
2023-04-15T04:13:31.244Z,41.63
2023-04-15T04:15:59.365Z,41.60
2023-04-15T04:18:27.585Z,41.52
2023-04-15T04:20:55.751Z,41.46
2023-04-15T04:23:23.734Z,41.34
2023-04-15T04:25:52.834Z,41.24
2023-04-15T04:28:20.909Z,41.22
2023-04-15T04:30:49.026Z,41.02
2023-04-15T04:33:17.146Z,40.90
2023-04-15T04:35:45.528Z,15.69
2023-04-15T04:38:13.656Z,40.52
2023-04-15T04:40:41.753Z,40.71
2023-04-15T04:43:10.260Z,40.52
2023-04-15T04:45:38.455Z,40.31
2023-04-15T04:48:08.747Z,40.19
2023-04-15T04:50:36.812Z,39.99
2023-04-15T04:53:04.877Z,39.86
2023-04-15T04:55:32.965Z,39.75
2023-04-15T04:58:01.548Z,39.68
2023-04-15T05:00:29.926Z,39.71
2023-04-15T05:02:58.735Z,39.48
2023-04-15T05:05:27.317Z,39.42
2023-04-15T05:07:55.264Z,39.28
2023-04-15T05:10:23.229Z,39.31
2023-04-15T05:12:52.127Z,39.29
2023-04-15T05:15:20.638Z,39.12
2023-04-15T05:17:48.783Z,39.09
2023-04-15T05:20:17.070Z,39.03
2023-04-15T05:22:45.330Z,39.02
2023-04-15T05:25:14.259Z,38.82
2023-04-15T05:27:42.406Z,38.78
2023-04-15T05:30:13.266Z,-1.00
2023-04-15T05:32:41.667Z,-1.00
2023-04-15T05:35:09.998Z,-1.00
2023-04-15T05:37:38.085Z,14.77
2023-04-15T05:40:06.965Z,38.19
2023-04-15T05:42:35.342Z,38.24
2023-04-15T05:45:09.185Z,38.15
2023-04-15T05:47:37.816Z,38.08
2023-04-15T05:50:06.822Z,38.05
2023-04-15T05:52:34.999Z,37.94
2023-04-15T05:55:03.051Z,37.85
2023-04-15T05:57:31.654Z,37.95
2023-04-15T05:59:59.734Z,37.84
2023-04-15T06:02:28.214Z,37.70
2023-04-15T06:04:57.870Z,37.71
2023-04-15T06:07:26.204Z,37.65
2023-04-15T06:09:54.358Z,37.75
2023-04-15T06:12:22.651Z,37.65
2023-04-15T06:14:51.240Z,37.60
2023-04-15T06:17:19.567Z,37.62
2023-04-15T06:19:47.781Z,37.60
2023-04-15T06:22:15.889Z,37.67
2023-04-15T06:24:43.948Z,37.70
2023-04-15T06:27:12.211Z,37.71
2023-04-15T06:29:40.371Z,37.81
2023-04-15T06:32:08.555Z,37.77
2023-04-15T06:34:36.635Z,37.59
2023-04-15T06:37:06.299Z,37.51
2023-04-15T06:39:34.610Z,37.42
2023-04-15T06:42:03.704Z,37.28
2023-04-15T06:44:33.358Z,37.26
2023-04-15T06:47:02.413Z,37.12
2023-04-15T06:49:30.371Z,21.89
2023-04-15T06:51:58.442Z,-1.00
2023-04-15T06:54:26.943Z,6.44
2023-04-15T06:56:55.004Z,36.60
2023-04-15T06:59:22.973Z,36.71
2023-04-15T07:01:51.444Z,36.78
2023-04-15T07:04:20.585Z,36.81
2023-04-15T07:06:48.830Z,36.90
2023-04-15T07:09:16.802Z,37.05
2023-04-15T07:11:44.983Z,37.14
2023-04-15T07:14:13.058Z,37.22
2023-04-15T07:16:41.061Z,37.24
2023-04-15T07:19:09.317Z,37.16
2023-04-15T07:21:38.973Z,37.09
2023-04-15T07:24:10.574Z,36.95
2023-04-15T07:26:38.716Z,36.87
2023-04-15T07:29:06.799Z,36.62
2023-04-15T07:31:34.902Z,36.56
2023-04-15T07:34:04.804Z,36.41
2023-04-15T07:36:32.771Z,36.28
2023-04-15T07:39:03.603Z,36.16
2023-04-15T07:41:31.966Z,35.96
2023-04-15T07:43:59.894Z,35.92
2023-04-15T07:46:28.571Z,35.83
2023-04-15T07:48:56.896Z,35.67
2023-04-15T07:51:25.082Z,35.62
2023-04-15T07:53:53.457Z,35.49
2023-04-15T07:56:22.057Z,35.44
2023-04-15T07:58:50.119Z,35.40
2023-04-15T08:01:18.506Z,35.39
2023-04-15T08:03:46.699Z,35.25
2023-04-15T08:06:14.934Z,35.27
2023-04-15T08:08:43.215Z,35.16
2023-04-15T08:11:11.298Z,35.20
2023-04-15T08:13:39.352Z,35.28
2023-04-15T08:16:18.895Z,35.16
2023-04-15T08:18:47.996Z,35.00
2023-04-15T08:21:16.691Z,35.18
2023-04-15T08:23:45.685Z,35.03
2023-04-15T08:26:14.454Z,34.91
2023-04-15T08:28:42.834Z,34.96
2023-04-15T08:31:11.146Z,34.83
2023-04-15T08:33:39.284Z,34.81
2023-04-15T08:36:07.871Z,35.01
2023-04-15T08:38:36.509Z,34.82
2023-04-15T08:41:18.758Z,34.75
2023-04-15T08:43:49.910Z,34.69
2023-04-15T08:46:17.995Z,34.74
2023-04-15T08:48:46.152Z,34.78
2023-04-15T08:51:16.475Z,34.90
2023-04-15T08:53:46.622Z,35.04
2023-04-15T08:56:16.090Z,34.93
2023-04-15T08:58:44.991Z,34.87
2023-04-15T09:01:13.377Z,35.02
2023-04-15T09:03:42.188Z,34.80
2023-04-15T09:06:10.185Z,34.80
2023-04-15T09:08:38.323Z,34.80
2023-04-15T09:11:06.702Z,34.81
2023-04-15T09:13:34.958Z,34.74
2023-04-15T09:16:04.528Z,34.73
2023-04-15T09:18:33.969Z,34.74
2023-04-15T09:21:12.738Z,34.56
2023-04-15T09:23:42.411Z,34.40
2023-04-15T09:26:10.890Z,34.11
2023-04-15T09:28:42.962Z,34.12
2023-04-15T09:31:11.348Z,20.00
2023-04-15T09:33:55.064Z,34.12
2023-04-15T09:36:23.348Z,33.99
2023-04-15T09:38:56.348Z,33.99
2023-04-15T09:41:28.619Z,34.04
2023-04-15T09:43:57.297Z,12.98
2023-04-15T09:46:46.462Z,-1.00
2023-04-15T09:49:14.664Z,26.65
2023-04-15T09:51:46.541Z,33.56
2023-04-15T09:54:22.466Z,33.46
2023-04-15T09:56:50.623Z,33.45
2023-04-15T09:59:20.097Z,33.36
2023-04-15T10:01:49.082Z,33.35
2023-04-15T10:11:56.469Z,33.56
2023-04-15T10:14:25.171Z,33.68
2023-04-15T10:16:53.331Z,33.66
2023-04-15T10:19:21.487Z,33.62
2023-04-15T10:21:50.381Z,33.66
2023-04-15T10:26:52.067Z,33.31
2023-04-15T10:29:19.978Z,33.12
2023-04-15T10:31:47.942Z,33.33
2023-04-15T10:34:16.268Z,33.31
2023-04-15T10:36:44.349Z,33.09
2023-04-15T10:39:34.432Z,26.32
2023-04-15T10:42:10.416Z,33.14
2023-04-15T10:44:39.316Z,33.12
2023-04-15T10:47:20.671Z,33.33
2023-04-15T10:55:05.175Z,33.37
2023-04-15T10:57:38.756Z,33.18
2023-04-15T11:00:16.618Z,33.24
2023-04-15T11:02:53.489Z,33.27
2023-04-15T11:05:42.294Z,33.09
2023-04-15T11:08:11.097Z,33.05
2023-04-15T11:10:39.163Z,33.07
2023-04-15T11:13:09.988Z,32.95
2023-04-15T11:15:42.478Z,32.99
2023-04-15T11:18:12.265Z,33.20
2023-04-15T11:20:41.791Z,33.13
2023-04-15T11:23:14.521Z,33.01
2023-04-15T11:25:43.815Z,32.90
2023-04-15T11:28:13.172Z,32.87
2023-04-15T11:30:42.264Z,32.81
2023-04-15T11:33:12.410Z,32.82
2023-04-15T11:35:44.299Z,32.84
2023-04-15T11:38:14.169Z,32.70
2023-04-15T11:40:45.319Z,32.87
2023-04-15T11:43:22.616Z,32.85
2023-04-15T11:45:58.203Z,32.88
2023-04-15T11:48:27.753Z,32.97
2023-04-15T11:51:02.581Z,32.86
2023-04-15T11:53:47.222Z,32.93
2023-04-15T11:56:20.428Z,32.95
2023-04-15T11:58:50.977Z,33.16
2023-04-15T12:01:19.447Z,12.63
2023-04-15T12:03:48.537Z,19.49
2023-04-15T12:06:17.982Z,33.13
2023-04-15T12:09:00.994Z,33.32
2023-04-15T12:11:47.629Z,33.45
2023-04-15T12:14:15.590Z,33.36
2023-04-15T12:16:48.403Z,33.37
2023-04-15T12:19:22.363Z,33.31
2023-04-15T12:21:50.619Z,33.41
2023-04-15T12:24:21.420Z,33.41
2023-04-15T12:26:53.772Z,33.28
2023-04-15T12:29:25.981Z,33.54
2023-04-15T12:31:55.817Z,33.35
2023-04-15T12:34:28.582Z,33.31
2023-04-15T12:36:57.898Z,33.30
2023-04-15T12:39:28.662Z,33.51
2023-04-15T12:42:00.361Z,33.50
2023-04-15T12:44:28.680Z,33.47
2023-04-15T12:46:56.871Z,33.24
2023-04-15T12:49:24.911Z,33.35
2023-04-15T12:51:54.406Z,33.45
2023-04-15T12:54:22.486Z,33.40
2023-04-15T12:56:50.863Z,33.46
2023-04-15T12:59:19.334Z,26.48
2023-04-15T13:01:48.185Z,-1.00
2023-04-15T13:04:16.636Z,19.46
2023-04-15T13:06:44.805Z,33.34
2023-04-15T13:09:13.254Z,33.38
2023-04-15T13:11:41.438Z,33.40
2023-04-15T13:14:11.541Z,33.36
2023-04-15T13:16:39.849Z,33.41
2023-04-15T13:19:08.105Z,33.46
2023-04-15T13:21:36.515Z,33.20
2023-04-15T13:24:05.386Z,33.40
2023-04-15T13:26:33.860Z,33.19
2023-04-15T13:29:02.066Z,33.28
2023-04-15T13:31:30.232Z,33.39
2023-04-15T13:33:58.483Z,33.60
2023-04-15T13:36:27.876Z,33.46
2023-04-15T13:38:55.964Z,33.55
2023-04-15T13:41:24.124Z,33.71
2023-04-15T13:43:52.265Z,33.72
2023-04-15T13:46:20.336Z,33.71
2023-04-15T13:48:48.312Z,33.62
2023-04-15T13:51:16.415Z,33.69
2023-04-15T13:53:44.479Z,33.66
2023-04-15T13:56:12.557Z,33.56
2023-04-15T13:58:41.333Z,33.83
2023-04-15T14:01:09.352Z,33.77
2023-04-15T14:03:37.638Z,33.75
2023-04-15T14:06:06.606Z,33.75
2023-04-15T14:08:34.538Z,33.46
2023-04-15T14:11:02.649Z,33.63
2023-04-15T14:13:30.696Z,33.63
2023-04-15T14:15:58.781Z,33.63
2023-04-15T14:18:26.847Z,33.83
2023-04-15T14:20:55.011Z,34.12
2023-04-15T14:23:23.715Z,34.00
2023-04-15T14:25:52.264Z,33.91
2023-04-15T14:28:20.567Z,34.17
2023-04-15T14:30:48.674Z,34.09
2023-04-15T14:33:16.906Z,34.23
2023-04-15T14:35:44.885Z,34.54
2023-04-15T14:38:12.952Z,34.56
2023-04-15T14:40:41.542Z,34.63
2023-04-15T14:43:09.707Z,34.54
2023-04-15T14:45:39.478Z,34.41
2023-04-15T14:48:10.267Z,34.73
2023-04-15T14:50:38.951Z,34.74
2023-04-15T14:53:06.855Z,34.76
2023-04-15T14:55:34.995Z,34.94
2023-04-15T14:58:03.075Z,34.89
2023-04-15T15:00:31.302Z,35.14
2023-04-15T15:02:59.335Z,35.16
2023-04-15T15:05:27.690Z,35.29
2023-04-15T15:07:55.703Z,13.44
2023-04-15T15:10:32.740Z,35.24
2023-04-15T15:13:11.992Z,35.59
2023-04-15T15:15:40.576Z,35.83
2023-04-15T15:18:08.931Z,35.95
2023-04-15T15:20:37.187Z,28.58
2023-04-15T15:23:05.201Z,-1.00
2023-04-15T15:25:33.275Z,-1.00
2023-04-15T15:28:01.340Z,28.56
2023-04-15T15:30:29.290Z,36.43
2023-04-15T15:32:57.225Z,36.45
2023-04-15T15:35:26.270Z,36.52
2023-04-15T15:37:55.119Z,36.53
2023-04-15T15:40:23.321Z,36.34
2023-04-15T15:42:51.488Z,36.15
2023-04-15T15:45:19.457Z,36.15
2023-04-15T15:47:47.890Z,36.07
2023-04-15T15:50:16.015Z,35.81
2023-04-15T15:52:44.510Z,35.78
2023-04-15T15:55:12.570Z,35.89
2023-04-15T15:57:40.750Z,35.97
2023-04-15T16:00:12.800Z,36.00
2023-04-15T16:05:12.213Z,36.09
2023-04-15T16:07:40.497Z,36.20
2023-04-15T16:10:09.407Z,36.31
2023-04-15T16:12:37.476Z,36.35
2023-04-15T16:15:06.460Z,36.45
2023-04-15T16:17:34.587Z,-1.00
2023-04-15T16:20:05.820Z,-1.00
2023-04-15T16:22:34.979Z,6.39
2023-04-15T16:25:03.358Z,36.19
2023-04-15T16:27:32.197Z,36.39
2023-04-15T16:30:00.533Z,36.36
2023-04-15T16:32:28.616Z,36.56
2023-04-15T16:34:56.882Z,36.48
2023-04-15T16:37:25.664Z,36.60
2023-04-15T16:39:53.734Z,36.49
2023-04-15T16:42:21.695Z,36.72
2023-04-15T16:44:49.882Z,36.79
2023-04-15T16:47:17.864Z,36.93
2023-04-15T16:49:46.097Z,37.08
2023-04-15T16:52:14.086Z,37.03
2023-04-15T16:54:42.085Z,37.13
2023-04-15T16:57:10.127Z,37.31
2023-04-15T16:59:38.202Z,37.38
2023-04-15T17:02:06.219Z,37.43
2023-04-15T17:04:35.106Z,37.43
2023-04-15T17:07:04.974Z,37.60
2023-04-15T17:09:33.062Z,37.61
2023-04-15T17:12:02.353Z,37.68
2023-04-15T17:14:30.721Z,37.86
2023-04-15T17:16:58.905Z,37.86
2023-04-15T17:19:27.698Z,37.94
2023-04-15T17:21:56.386Z,38.03
2023-04-15T17:24:24.875Z,38.05
2023-04-15T17:26:54.160Z,38.25
2023-04-15T17:29:22.937Z,38.17
2023-04-15T17:31:50.920Z,38.21
2023-04-15T17:34:18.951Z,38.44
2023-04-15T17:36:48.430Z,38.41
2023-04-15T17:39:16.465Z,38.62
2023-04-15T17:41:44.442Z,38.62
2023-04-15T17:44:12.513Z,38.60
2023-04-15T17:46:40.812Z,38.68
2023-04-15T17:49:08.849Z,38.75
2023-04-15T17:51:36.827Z,38.84
2023-04-15T17:54:11.251Z,38.93
2023-04-15T17:56:39.211Z,38.91
2023-04-15T17:59:08.867Z,39.03
2023-04-15T18:01:36.894Z,39.07
2023-04-15T18:04:05.762Z,39.10
2023-04-15T18:06:35.038Z,39.16
2023-04-15T18:09:04.130Z,39.21
2023-04-15T18:11:33.500Z,39.34
2023-04-15T18:14:02.810Z,39.47
2023-04-15T18:16:31.091Z,39.51
2023-04-15T18:18:59.542Z,39.63
2023-04-15T18:21:27.616Z,39.71
2023-04-15T18:23:55.795Z,39.74
2023-04-15T18:26:23.712Z,39.81
2023-04-15T18:28:51.617Z,39.82
2023-04-15T18:31:19.851Z,39.84
2023-04-15T18:33:47.759Z,39.80
2023-04-15T18:36:15.841Z,39.90
2023-04-15T18:38:45.940Z,39.86
2023-04-15T18:41:14.144Z,39.94
2023-04-15T18:43:42.406Z,39.89
2023-04-15T18:46:12.440Z,39.93
2023-04-15T18:48:40.709Z,39.97
2023-04-15T18:51:08.707Z,39.76
2023-04-15T18:53:36.882Z,39.86
2023-04-15T18:56:05.029Z,39.87
2023-04-15T18:59:08.991Z,39.80
2023-04-15T19:01:21.591Z,39.78
2023-04-15T19:03:50.326Z,39.74
2023-04-15T19:06:18.313Z,39.73
2023-04-15T19:08:46.376Z,39.65
2023-04-15T19:11:14.440Z,39.63
2023-04-15T19:13:42.620Z,39.62
2023-04-15T19:16:10.712Z,39.54
2023-04-15T19:18:38.659Z,39.59
2023-04-15T19:21:06.656Z,39.50
2023-04-15T19:23:34.702Z,39.47
2023-04-15T19:26:02.640Z,39.44
2023-04-15T19:28:31.056Z,39.43
2023-04-15T19:30:58.980Z,39.50
2023-04-15T19:33:31.266Z,39.44
2023-04-15T19:36:04.411Z,39.45
2023-04-15T19:38:33.181Z,39.41
2023-04-15T19:41:01.140Z,39.41
2023-04-15T19:43:29.709Z,39.40
2023-04-15T19:45:58.131Z,39.36
2023-04-15T19:48:26.403Z,39.32
2023-04-15T19:50:54.454Z,39.38
2023-04-15T19:53:22.275Z,39.35
2023-04-15T19:55:50.598Z,39.30
2023-04-15T19:58:18.672Z,39.26
2023-04-15T20:00:46.752Z,39.28
2023-04-15T20:03:15.024Z,39.15
2023-04-15T20:05:43.453Z,39.28
2023-04-15T20:08:11.677Z,39.17
2023-04-15T20:10:39.851Z,39.26
2023-04-15T20:13:07.931Z,39.19
2023-04-15T20:15:36.157Z,39.17
2023-04-15T20:18:04.472Z,39.15
2023-04-15T20:20:34.708Z,39.04
2023-04-15T20:23:02.659Z,39.20
2023-04-15T20:25:30.627Z,39.22
2023-04-15T20:28:00.982Z,39.14
2023-04-15T20:30:29.435Z,39.24
2023-04-15T20:32:57.545Z,39.09
2023-04-15T20:35:28.337Z,39.14
2023-04-15T20:37:56.648Z,39.14
2023-04-15T20:40:24.790Z,39.14
2023-04-15T20:42:52.764Z,39.03
2023-04-15T20:45:21.012Z,38.96
2023-04-15T20:47:49.131Z,39.12
2023-04-15T20:50:17.395Z,39.06
2023-04-15T20:52:45.871Z,39.08
2023-04-15T20:55:13.947Z,39.06
2023-04-15T20:57:42.021Z,39.11
2023-04-15T21:00:11.101Z,39.01
2023-04-15T21:02:39.370Z,39.10
2023-04-15T21:05:08.082Z,39.25
2023-04-15T21:07:36.061Z,39.14
2023-04-15T21:10:04.423Z,39.21
2023-04-15T21:12:32.591Z,39.15
2023-04-15T21:15:00.661Z,39.16
2023-04-15T21:17:28.781Z,39.17
2023-04-15T21:19:57.023Z,39.22
2023-04-15T21:30:04.973Z,39.35
2023-04-15T21:32:33.042Z,39.34
2023-04-15T21:35:01.353Z,39.30
2023-04-15T21:37:29.493Z,39.40
2023-04-15T21:39:57.579Z,39.38
2023-04-15T21:42:26.301Z,39.45
2023-04-15T21:44:54.426Z,39.49
2023-04-15T21:47:22.524Z,39.45
2023-04-15T21:49:50.984Z,39.45
2023-04-15T21:52:19.018Z,39.51
2023-04-15T21:54:46.963Z,39.51
2023-04-15T21:57:15.502Z,39.58
2023-04-15T21:59:43.574Z,39.58
2023-04-15T22:02:11.729Z,39.68
2023-04-15T22:04:39.922Z,39.59
2023-04-15T22:07:07.993Z,39.62
2023-04-15T22:09:36.063Z,39.67
2023-04-15T22:19:43.407Z,39.77
2023-04-15T22:24:44.563Z,39.87
2023-04-15T22:27:12.640Z,39.90
2023-04-15T22:29:40.924Z,39.91
2023-04-15T22:32:08.990Z,39.93
2023-04-15T22:34:36.863Z,40.01
2023-04-15T22:37:04.826Z,40.03
2023-04-15T22:39:32.890Z,40.03
2023-04-15T22:42:02.206Z,40.16
2023-04-15T22:44:30.590Z,40.09
2023-04-15T22:46:58.647Z,40.13
2023-04-15T22:49:27.218Z,40.17
2023-04-15T22:51:55.311Z,40.13
2023-04-15T22:54:24.598Z,40.16
2023-04-15T22:56:52.668Z,40.22
2023-04-15T22:59:20.662Z,40.18
2023-04-15T23:01:48.709Z,40.24
2023-04-15T23:04:22.850Z,40.27
2023-04-15T23:06:52.646Z,40.22
2023-04-15T23:09:21.219Z,40.32
2023-04-15T23:11:49.600Z,40.33
2023-04-15T23:14:17.669Z,40.41
2023-04-15T23:16:45.736Z,40.26
2023-04-15T23:19:13.972Z,40.35
2023-04-15T23:21:41.972Z,40.44
2023-04-15T23:24:09.962Z,40.48
2023-04-15T23:26:38.123Z,40.43
2023-04-15T23:29:06.308Z,40.51
2023-04-15T23:31:34.899Z,40.51
2023-04-15T23:34:03.378Z,40.55
2023-04-15T23:36:32.147Z,40.51
2023-04-15T23:39:00.228Z,40.53
2023-04-15T23:41:28.412Z,40.47
2023-04-15T23:43:56.742Z,40.52
2023-04-15T23:46:24.999Z,40.50
2023-04-15T23:48:53.024Z,40.55
2023-04-15T23:51:21.096Z,40.55
2023-04-15T23:53:49.475Z,40.61
2023-04-15T23:56:17.649Z,40.58
2023-04-15T23:58:45.910Z,40.58
